sensor_id;sensor_type;location;lat;lon;timestamp;P1;durP1;ratioP1;P2;durP2;ratioP2
20241;SDS011;10279;46.388;8.116;2022-07-29T00:01:40;1.58;;;0.98;;
20241;SDS011;10279;46.388;8.116;2022-07-29T00:04:07;1.20;;;1.10;;
20241;SDS011;10279;46.388;8.116;2022-07-29T00:06:38;1.52;;;1.25;;
20241;SDS011;10279;46.388;8.116;2022-07-29T00:09:05;1.80;;;0.90;;
20241;SDS011;10279;46.388;8.116;2022-07-29T00:11:33;1.23;;;0.93;;
20241;SDS011;10279;46.388;8.116;2022-07-29T00:14:00;0.80;;;0.80;;
20241;SDS011;10279;46.388;8.116;2022-07-29T00:16:27;1.33;;;0.90;;
20241;SDS011;10279;46.388;8.116;2022-07-29T00:18:55;1.42;;;1.20;;
20241;SDS011;10279;46.388;8.116;2022-07-29T00:21:27;1.20;;;1.10;;
20241;SDS011;10279;46.388;8.116;2022-07-29T00:23:54;1.77;;;1.17;;
20241;SDS011;10279;46.388;8.116;2022-07-29T00:26:22;1.30;;;1.13;;
20241;SDS011;10279;46.388;8.116;2022-07-29T00:28:49;3.70;;;1.30;;
20241;SDS011;10279;46.388;8.116;2022-07-29T00:31:17;1.63;;;0.90;;
20241;SDS011;10279;46.388;8.116;2022-07-29T00:33:44;0.93;;;0.93;;
20241;SDS011;10279;46.388;8.116;2022-07-29T00:36:12;1.05;;;0.98;;
20241;SDS011;10279;46.388;8.116;2022-07-29T00:38:39;1.20;;;1.10;;
20241;SDS011;10279;46.388;8.116;2022-07-29T00:41:11;1.10;;;1.00;;
20241;SDS011;10279;46.388;8.116;2022-07-29T00:43:38;1.10;;;1.00;;
20241;SDS011;10279;46.388;8.116;2022-07-29T00:46:07;1.20;;;1.10;;
20241;SDS011;10279;46.388;8.116;2022-07-29T00:48:34;1.27;;;0.98;;
20241;SDS011;10279;46.388;8.116;2022-07-29T00:51:02;0.88;;;0.88;;
20241;SDS011;10279;46.388;8.116;2022-07-29T00:53:30;0.90;;;0.90;;
20241;SDS011;10279;46.388;8.116;2022-07-29T00:55:58;1.77;;;1.00;;
20241;SDS011;10279;46.388;8.116;2022-07-29T00:58:25;2.95;;;1.40;;
20241;SDS011;10279;46.388;8.116;2022-07-29T01:00:53;0.85;;;0.82;;
20241;SDS011;10279;46.388;8.116;2022-07-29T01:03:21;2.17;;;1.00;;
20241;SDS011;10279;46.388;8.116;2022-07-29T01:05:48;2.33;;;1.00;;
20241;SDS011;10279;46.388;8.116;2022-07-29T01:08:17;1.55;;;1.10;;
20241;SDS011;10279;46.388;8.116;2022-07-29T01:10:45;1.63;;;1.02;;
20241;SDS011;10279;46.388;8.116;2022-07-29T01:13:13;1.33;;;1.17;;
20241;SDS011;10279;46.388;8.116;2022-07-29T01:15:51;1.25;;;1.10;;
20241;SDS011;10279;46.388;8.116;2022-07-29T01:18:35;1.23;;;1.13;;
20241;SDS011;10279;46.388;8.116;2022-07-29T01:32:03;1.40;;;1.13;;
20241;SDS011;10279;46.388;8.116;2022-07-29T01:39:42;3.45;;;1.10;;
20241;SDS011;10279;46.388;8.116;2022-07-29T01:44:57;2.65;;;1.27;;
20241;SDS011;10279;46.388;8.116;2022-07-29T01:47:28;1.20;;;1.10;;
20241;SDS011;10279;46.388;8.116;2022-07-29T01:50:00;2.22;;;1.00;;
20241;SDS011;10279;46.388;8.116;2022-07-29T01:52:42;1.95;;;0.95;;
20241;SDS011;10279;46.388;8.116;2022-07-29T01:55:15;1.08;;;0.98;;
20241;SDS011;10279;46.388;8.116;2022-07-29T01:57:44;1.38;;;1.05;;
20241;SDS011;10279;46.388;8.116;2022-07-29T02:00:12;4.18;;;1.73;;
20241;SDS011;10279;46.388;8.116;2022-07-29T02:02:42;1.00;;;0.90;;
20241;SDS011;10279;46.388;8.116;2022-07-29T02:05:10;2.03;;;1.20;;
20241;SDS011;10279;46.388;8.116;2022-07-29T02:07:39;1.45;;;1.30;;
20241;SDS011;10279;46.388;8.116;2022-07-29T02:10:07;1.17;;;0.90;;
20241;SDS011;10279;46.388;8.116;2022-07-29T02:12:35;1.20;;;1.10;;
20241;SDS011;10279;46.388;8.116;2022-07-29T02:15:04;1.42;;;1.08;;
20241;SDS011;10279;46.388;8.116;2022-07-29T02:17:39;1.60;;;1.30;;
20241;SDS011;10279;46.388;8.116;2022-07-29T02:20:13;1.95;;;1.20;;
20241;SDS011;10279;46.388;8.116;2022-07-29T02:22:40;1.70;;;1.10;;
20241;SDS011;10279;46.388;8.116;2022-07-29T02:25:09;2.88;;;0.90;;
20241;SDS011;10279;46.388;8.116;2022-07-29T02:27:39;1.30;;;1.20;;
20241;SDS011;10279;46.388;8.116;2022-07-29T02:30:08;1.10;;;1.00;;
20241;SDS011;10279;46.388;8.116;2022-07-29T02:32:38;1.98;;;0.95;;
20241;SDS011;10279;46.388;8.116;2022-07-29T02:35:08;1.30;;;1.20;;
20241;SDS011;10279;46.388;8.116;2022-07-29T02:37:36;1.95;;;0.98;;
20241;SDS011;10279;46.388;8.116;2022-07-29T02:40:07;2.22;;;1.10;;
20241;SDS011;10279;46.388;8.116;2022-07-29T02:42:37;2.50;;;0.98;;
20241;SDS011;10279;46.388;8.116;2022-07-29T02:45:10;1.50;;;1.20;;
20241;SDS011;10279;46.388;8.116;2022-07-29T02:47:39;2.00;;;1.15;;
20241;SDS011;10279;46.388;8.116;2022-07-29T02:50:15;3.65;;;1.10;;
20241;SDS011;10279;46.388;8.116;2022-07-29T02:53:05;2.45;;;1.30;;
20241;SDS011;10279;46.388;8.116;2022-07-29T02:55:46;3.72;;;1.10;;
20241;SDS011;10279;46.388;8.116;2022-07-29T03:00:55;1.00;;;1.00;;
20241;SDS011;10279;46.388;8.116;2022-07-29T03:03:27;1.70;;;1.23;;
20241;SDS011;10279;46.388;8.116;2022-07-29T03:05:57;2.17;;;1.20;;
20241;SDS011;10279;46.388;8.116;2022-07-29T03:08:27;1.77;;;1.17;;
20241;SDS011;10279;46.388;8.116;2022-07-29T03:10:54;1.05;;;1.00;;
20241;SDS011;10279;46.388;8.116;2022-07-29T03:13:22;1.20;;;1.10;;
20241;SDS011;10279;46.388;8.116;2022-07-29T03:15:49;3.72;;;1.13;;
20241;SDS011;10279;46.388;8.116;2022-07-29T03:18:17;2.45;;;1.20;;
20241;SDS011;10279;46.388;8.116;2022-07-29T03:20:44;0.93;;;0.93;;
20241;SDS011;10279;46.388;8.116;2022-07-29T03:23:12;1.25;;;1.10;;
20241;SDS011;10279;46.388;8.116;2022-07-29T03:25:50;2.20;;;1.00;;
20241;SDS011;10279;46.388;8.116;2022-07-29T03:28:17;1.33;;;1.10;;
20241;SDS011;10279;46.388;8.116;2022-07-29T03:30:47;1.50;;;1.00;;
20241;SDS011;10279;46.388;8.116;2022-07-29T03:33:14;1.30;;;1.20;;
20241;SDS011;10279;46.388;8.116;2022-07-29T03:35:41;1.63;;;1.35;;
20241;SDS011;10279;46.388;8.116;2022-07-29T03:38:09;1.73;;;1.00;;
20241;SDS011;10279;46.388;8.116;2022-07-29T03:40:48;1.27;;;1.17;;
20241;SDS011;10279;46.388;8.116;2022-07-29T03:43:28;1.10;;;1.00;;
20241;SDS011;10279;46.388;8.116;2022-07-29T03:46:00;2.38;;;1.30;;
20241;SDS011;10279;46.388;8.116;2022-07-29T03:48:28;1.45;;;1.20;;
20241;SDS011;10279;46.388;8.116;2022-07-29T03:50:59;1.98;;;1.30;;
20241;SDS011;10279;46.388;8.116;2022-07-29T03:53:26;3.35;;;1.15;;
20241;SDS011;10279;46.388;8.116;2022-07-29T03:55:54;1.33;;;1.02;;
20241;SDS011;10279;46.388;8.116;2022-07-29T03:58:26;1.30;;;1.20;;
20241;SDS011;10279;46.388;8.116;2022-07-29T04:00:54;2.13;;;1.30;;
20241;SDS011;10279;46.388;8.116;2022-07-29T04:03:22;1.00;;;1.00;;
20241;SDS011;10279;46.388;8.116;2022-07-29T04:06:00;1.40;;;1.25;;
20241;SDS011;10279;46.388;8.116;2022-07-29T04:08:30;1.20;;;1.10;;
20241;SDS011;10279;46.388;8.116;2022-07-29T04:10:57;1.60;;;1.50;;
20241;SDS011;10279;46.388;8.116;2022-07-29T04:13:24;1.77;;;1.45;;
20241;SDS011;10279;46.388;8.116;2022-07-29T04:15:51;3.22;;;1.10;;
20241;SDS011;10279;46.388;8.116;2022-07-29T04:18:18;2.25;;;1.38;;
20241;SDS011;10279;46.388;8.116;2022-07-29T04:20:45;1.27;;;0.98;;
20241;SDS011;10279;46.388;8.116;2022-07-29T04:23:12;1.20;;;1.20;;
20241;SDS011;10279;46.388;8.116;2022-07-29T04:25:40;2.38;;;1.30;;
20241;SDS011;10279;46.388;8.116;2022-07-29T04:28:07;1.50;;;1.40;;
20241;SDS011;10279;46.388;8.116;2022-07-29T04:30:36;1.10;;;1.00;;
20241;SDS011;10279;46.388;8.116;2022-07-29T04:33:06;3.97;;;1.30;;
20241;SDS011;10279;46.388;8.116;2022-07-29T04:35:35;1.50;;;1.40;;
20241;SDS011;10279;46.388;8.116;2022-07-29T04:38:15;3.00;;;1.23;;
20241;SDS011;10279;46.388;8.116;2022-07-29T04:40:43;2.10;;;1.42;;
20241;SDS011;10279;46.388;8.116;2022-07-29T04:43:10;2.22;;;1.50;;
20241;SDS011;10279;46.388;8.116;2022-07-29T04:45:39;2.63;;;1.48;;
20241;SDS011;10279;46.388;8.116;2022-07-29T04:48:06;1.42;;;1.33;;
20241;SDS011;10279;46.388;8.116;2022-07-29T04:50:33;2.75;;;1.40;;
20241;SDS011;10279;46.388;8.116;2022-07-29T04:53:00;3.72;;;1.40;;
20241;SDS011;10279;46.388;8.116;2022-07-29T04:55:27;1.70;;;1.30;;
20241;SDS011;10279;46.388;8.116;2022-07-29T04:57:54;1.58;;;1.48;;
20241;SDS011;10279;46.388;8.116;2022-07-29T05:00:21;3.08;;;1.40;;
20241;SDS011;10279;46.388;8.116;2022-07-29T05:02:58;2.40;;;1.30;;
20241;SDS011;10279;46.388;8.116;2022-07-29T05:05:26;2.60;;;1.50;;
20241;SDS011;10279;46.388;8.116;2022-07-29T05:07:53;3.33;;;1.73;;
20241;SDS011;10279;46.388;8.116;2022-07-29T05:10:20;1.50;;;1.20;;
20241;SDS011;10279;46.388;8.116;2022-07-29T05:12:47;2.40;;;1.45;;
20241;SDS011;10279;46.388;8.116;2022-07-29T05:15:14;2.00;;;1.80;;
20241;SDS011;10279;46.388;8.116;2022-07-29T05:17:43;1.48;;;1.38;;
20241;SDS011;10279;46.388;8.116;2022-07-29T05:20:10;2.03;;;1.65;;
20241;SDS011;10279;46.388;8.116;2022-07-29T05:22:37;1.48;;;1.20;;
20241;SDS011;10279;46.388;8.116;2022-07-29T05:25:05;2.55;;;1.45;;
20241;SDS011;10279;46.388;8.116;2022-07-29T05:27:35;1.40;;;1.30;;
20241;SDS011;10279;46.388;8.116;2022-07-29T05:30:03;1.50;;;1.40;;
20241;SDS011;10279;46.388;8.116;2022-07-29T05:32:30;1.77;;;1.38;;
20241;SDS011;10279;46.388;8.116;2022-07-29T05:34:58;3.08;;;1.55;;
20241;SDS011;10279;46.388;8.116;2022-07-29T05:37:25;1.63;;;1.50;;
20241;SDS011;10279;46.388;8.116;2022-07-29T05:39:52;1.67;;;1.58;;
20241;SDS011;10279;46.388;8.116;2022-07-29T05:42:23;1.48;;;1.30;;
20241;SDS011;10279;46.388;8.116;2022-07-29T05:44:51;2.50;;;1.40;;
20241;SDS011;10279;46.388;8.116;2022-07-29T05:47:19;2.38;;;1.45;;
20241;SDS011;10279;46.388;8.116;2022-07-29T05:49:46;1.80;;;1.70;;
20241;SDS011;10279;46.388;8.116;2022-07-29T05:52:13;1.40;;;1.30;;
20241;SDS011;10279;46.388;8.116;2022-07-29T05:54:40;2.13;;;1.65;;
20241;SDS011;10279;46.388;8.116;2022-07-29T05:57:07;2.42;;;1.52;;
20241;SDS011;10279;46.388;8.116;2022-07-29T05:59:35;1.75;;;1.50;;
20241;SDS011;10279;46.388;8.116;2022-07-29T06:02:03;2.03;;;1.60;;
20241;SDS011;10279;46.388;8.116;2022-07-29T06:04:31;2.10;;;1.70;;
20241;SDS011;10279;46.388;8.116;2022-07-29T06:07:00;2.00;;;1.80;;
20241;SDS011;10279;46.388;8.116;2022-07-29T06:09:28;1.40;;;1.30;;
20241;SDS011;10279;46.388;8.116;2022-07-29T06:11:55;1.50;;;1.40;;
20241;SDS011;10279;46.388;8.116;2022-07-29T06:14:24;1.70;;;1.60;;
20241;SDS011;10279;46.388;8.116;2022-07-29T06:16:52;2.53;;;1.60;;
20241;SDS011;10279;46.388;8.116;2022-07-29T06:19:20;2.03;;;1.60;;
20241;SDS011;10279;46.388;8.116;2022-07-29T06:21:47;1.67;;;1.58;;
20241;SDS011;10279;46.388;8.116;2022-07-29T06:24:14;2.83;;;1.73;;
20241;SDS011;10279;46.388;8.116;2022-07-29T06:26:42;3.38;;;1.88;;
20241;SDS011;10279;46.388;8.116;2022-07-29T06:29:12;3.67;;;1.80;;
20241;SDS011;10279;46.388;8.116;2022-07-29T06:31:39;1.13;;;1.13;;
20241;SDS011;10279;46.388;8.116;2022-07-29T06:34:06;1.50;;;1.40;;
20241;SDS011;10279;46.388;8.116;2022-07-29T06:36:34;1.58;;;1.42;;
20241;SDS011;10279;46.388;8.116;2022-07-29T06:39:04;2.50;;;1.40;;
20241;SDS011;10279;46.388;8.116;2022-07-29T06:41:33;2.45;;;1.60;;
20241;SDS011;10279;46.388;8.116;2022-07-29T06:44:00;2.90;;;1.50;;
20241;SDS011;10279;46.388;8.116;2022-07-29T06:46:27;2.05;;;1.70;;
20241;SDS011;10279;46.388;8.116;2022-07-29T06:48:55;2.30;;;1.60;;
20241;SDS011;10279;46.388;8.116;2022-07-29T06:51:22;1.55;;;1.35;;
20241;SDS011;10279;46.388;8.116;2022-07-29T06:53:53;1.90;;;1.80;;
20241;SDS011;10279;46.388;8.116;2022-07-29T06:56:28;1.40;;;1.30;;
20241;SDS011;10279;46.388;8.116;2022-07-29T06:58:57;2.63;;;1.65;;
20241;SDS011;10279;46.388;8.116;2022-07-29T07:01:24;1.98;;;1.77;;
20241;SDS011;10279;46.388;8.116;2022-07-29T07:03:51;3.65;;;1.52;;
20241;SDS011;10279;46.388;8.116;2022-07-29T07:06:18;1.88;;;1.50;;
20241;SDS011;10279;46.388;8.116;2022-07-29T07:08:45;3.85;;;2.03;;
20241;SDS011;10279;46.388;8.116;2022-07-29T07:11:12;2.55;;;1.63;;
20241;SDS011;10279;46.388;8.116;2022-07-29T07:13:39;2.85;;;1.60;;
20241;SDS011;10279;46.388;8.116;2022-07-29T07:16:06;2.10;;;1.75;;
20241;SDS011;10279;46.388;8.116;2022-07-29T07:18:34;3.67;;;1.52;;
20241;SDS011;10279;46.388;8.116;2022-07-29T07:21:01;3.63;;;1.80;;
20241;SDS011;10279;46.388;8.116;2022-07-29T07:23:28;2.63;;;1.67;;
20241;SDS011;10279;46.388;8.116;2022-07-29T07:25:55;2.25;;;1.55;;
20241;SDS011;10279;46.388;8.116;2022-07-29T07:28:22;2.10;;;1.85;;
20241;SDS011;10279;46.388;8.116;2022-07-29T07:30:50;1.80;;;1.70;;
20241;SDS011;10279;46.388;8.116;2022-07-29T07:33:18;1.50;;;1.40;;
20241;SDS011;10279;46.388;8.116;2022-07-29T07:35:45;1.70;;;1.60;;
20241;SDS011;10279;46.388;8.116;2022-07-29T07:38:13;2.22;;;1.90;;
20241;SDS011;10279;46.388;8.116;2022-07-29T07:40:40;1.52;;;1.42;;
20241;SDS011;10279;46.388;8.116;2022-07-29T07:43:07;2.45;;;1.77;;
20241;SDS011;10279;46.388;8.116;2022-07-29T07:45:34;2.08;;;1.67;;
20241;SDS011;10279;46.388;8.116;2022-07-29T07:48:04;1.60;;;1.50;;
20241;SDS011;10279;46.388;8.116;2022-07-29T07:50:31;1.92;;;1.50;;
20241;SDS011;10279;46.388;8.116;2022-07-29T07:52:58;3.45;;;1.65;;
20241;SDS011;10279;46.388;8.116;2022-07-29T07:55:28;2.22;;;2.03;;
20241;SDS011;10279;46.388;8.116;2022-07-29T07:58:15;1.70;;;1.60;;
20241;SDS011;10279;46.388;8.116;2022-07-29T08:00:42;3.17;;;1.83;;
20241;SDS011;10279;46.388;8.116;2022-07-29T08:03:09;2.58;;;1.80;;
20241;SDS011;10279;46.388;8.116;2022-07-29T08:05:42;1.75;;;1.65;;
20241;SDS011;10279;46.388;8.116;2022-07-29T08:08:10;1.70;;;1.55;;
20241;SDS011;10279;46.388;8.116;2022-07-29T08:10:37;3.65;;;1.77;;
20241;SDS011;10279;46.388;8.116;2022-07-29T08:13:20;2.38;;;1.42;;
20241;SDS011;10279;46.388;8.116;2022-07-29T08:15:48;1.45;;;1.35;;
20241;SDS011;10279;46.388;8.116;2022-07-29T08:18:27;1.92;;;1.50;;
20241;SDS011;10279;46.388;8.116;2022-07-29T08:20:55;1.92;;;1.83;;
20241;SDS011;10279;46.388;8.116;2022-07-29T08:23:22;2.72;;;1.80;;
20241;SDS011;10279;46.388;8.116;2022-07-29T08:25:50;3.28;;;1.60;;
20241;SDS011;10279;46.388;8.116;2022-07-29T08:28:20;3.10;;;1.70;;
20241;SDS011;10279;46.388;8.116;2022-07-29T08:30:51;1.50;;;1.40;;
20241;SDS011;10279;46.388;8.116;2022-07-29T08:33:20;1.45;;;1.35;;
20241;SDS011;10279;46.388;8.116;2022-07-29T08:35:48;1.83;;;1.50;;
20241;SDS011;10279;46.388;8.116;2022-07-29T08:38:16;2.38;;;1.45;;
20241;SDS011;10279;46.388;8.116;2022-07-29T08:40:44;1.67;;;1.55;;
20241;SDS011;10279;46.388;8.116;2022-07-29T08:43:12;1.60;;;1.40;;
20241;SDS011;10279;46.388;8.116;2022-07-29T08:45:43;1.45;;;1.35;;
20241;SDS011;10279;46.388;8.116;2022-07-29T08:48:14;1.98;;;1.60;;
20241;SDS011;10279;46.388;8.116;2022-07-29T08:50:42;1.27;;;1.17;;
20241;SDS011;10279;46.388;8.116;2022-07-29T08:53:13;2.63;;;1.60;;
20241;SDS011;10279;46.388;8.116;2022-07-29T08:55:44;1.50;;;1.40;;
20241;SDS011;10279;46.388;8.116;2022-07-29T08:58:11;4.43;;;1.40;;
20241;SDS011;10279;46.388;8.116;2022-07-29T09:00:41;2.17;;;1.30;;
20241;SDS011;10279;46.388;8.116;2022-07-29T09:03:12;2.40;;;1.33;;
20241;SDS011;10279;46.388;8.116;2022-07-29T09:05:42;1.50;;;1.30;;
20241;SDS011;10279;46.388;8.116;2022-07-29T09:08:13;1.63;;;1.45;;
20241;SDS011;10279;46.388;8.116;2022-07-29T09:10:41;1.40;;;1.30;;
20241;SDS011;10279;46.388;8.116;2022-07-29T09:13:09;3.95;;;1.40;;
20241;SDS011;10279;46.388;8.116;2022-07-29T09:15:36;1.30;;;1.20;;
20241;SDS011;10279;46.388;8.116;2022-07-29T09:18:03;1.70;;;1.35;;
20241;SDS011;10279;46.388;8.116;2022-07-29T09:20:31;1.52;;;1.40;;
20241;SDS011;10279;46.388;8.116;2022-07-29T09:23:17;1.60;;;1.50;;
20241;SDS011;10279;46.388;8.116;2022-07-29T09:25:50;2.28;;;1.65;;
20241;SDS011;10279;46.388;8.116;2022-07-29T09:28:18;2.33;;;1.35;;
20241;SDS011;10279;46.388;8.116;2022-07-29T09:30:54;2.15;;;1.60;;
20241;SDS011;10279;46.388;8.116;2022-07-29T09:33:23;2.47;;;1.60;;
20241;SDS011;10279;46.388;8.116;2022-07-29T09:36:02;1.33;;;1.23;;
20241;SDS011;10279;46.388;8.116;2022-07-29T09:38:34;2.38;;;1.50;;
20241;SDS011;10279;46.388;8.116;2022-07-29T09:41:03;3.00;;;1.67;;
20241;SDS011;10279;46.388;8.116;2022-07-29T09:43:32;5.15;;;1.48;;
20241;SDS011;10279;46.388;8.116;2022-07-29T09:46:10;2.45;;;1.60;;
20241;SDS011;10279;46.388;8.116;2022-07-29T09:48:38;1.58;;;1.42;;
20241;SDS011;10279;46.388;8.116;2022-07-29T09:51:05;1.75;;;1.48;;
20241;SDS011;10279;46.388;8.116;2022-07-29T09:53:51;4.93;;;1.90;;
20241;SDS011;10279;46.388;8.116;2022-07-29T09:56:40;3.90;;;2.60;;
20241;SDS011;10279;46.388;8.116;2022-07-29T09:59:08;3.17;;;2.50;;
20241;SDS011;10279;46.388;8.116;2022-07-29T10:01:37;4.22;;;2.85;;
20241;SDS011;10279;46.388;8.116;2022-07-29T10:04:04;3.83;;;2.92;;
20241;SDS011;10279;46.388;8.116;2022-07-29T10:06:32;5.22;;;3.22;;
20241;SDS011;10279;46.388;8.116;2022-07-29T10:09:09;5.90;;;3.50;;
20241;SDS011;10279;46.388;8.116;2022-07-29T10:11:37;6.03;;;3.30;;
20241;SDS011;10279;46.388;8.116;2022-07-29T10:14:14;4.28;;;3.08;;
20241;SDS011;10279;46.388;8.116;2022-07-29T10:16:42;4.78;;;2.67;;
20241;SDS011;10279;46.388;8.116;2022-07-29T10:19:10;3.20;;;2.90;;
20241;SDS011;10279;46.388;8.116;2022-07-29T10:21:37;3.17;;;2.53;;
20241;SDS011;10279;46.388;8.116;2022-07-29T10:24:09;3.42;;;2.60;;
20241;SDS011;10279;46.388;8.116;2022-07-29T10:26:40;2.35;;;1.92;;
20241;SDS011;10279;46.388;8.116;2022-07-29T10:29:08;4.40;;;2.33;;
20241;SDS011;10279;46.388;8.116;2022-07-29T10:31:43;4.53;;;2.30;;
20241;SDS011;10279;46.388;8.116;2022-07-29T10:34:18;3.92;;;2.08;;
20241;SDS011;10279;46.388;8.116;2022-07-29T10:44:40;4.57;;;2.20;;
20241;SDS011;10279;46.388;8.116;2022-07-29T10:47:19;3.10;;;2.28;;
20241;SDS011;10279;46.388;8.116;2022-07-29T10:58:11;2.92;;;1.98;;
20241;SDS011;10279;46.388;8.116;2022-07-29T11:00:40;2.60;;;1.92;;
20241;SDS011;10279;46.388;8.116;2022-07-29T11:03:41;3.28;;;2.35;;
20241;SDS011;10279;46.388;8.116;2022-07-29T11:05:58;3.47;;;2.40;;
20241;SDS011;10279;46.388;8.116;2022-07-29T11:08:25;2.42;;;2.22;;
20241;SDS011;10279;46.388;8.116;2022-07-29T11:11:30;3.28;;;2.25;;
20241;SDS011;10279;46.388;8.116;2022-07-29T11:16:11;2.58;;;2.38;;
20241;SDS011;10279;46.388;8.116;2022-07-29T11:21:37;4.50;;;2.25;;
20241;SDS011;10279;46.388;8.116;2022-07-29T11:24:26;2.70;;;2.40;;
20241;SDS011;10279;46.388;8.116;2022-07-29T11:29:58;3.45;;;2.35;;
20241;SDS011;10279;46.388;8.116;2022-07-29T11:32:37;3.55;;;2.40;;
20241;SDS011;10279;46.388;8.116;2022-07-29T11:35:14;4.82;;;2.83;;
20241;SDS011;10279;46.388;8.116;2022-07-29T11:43:47;2.92;;;2.55;;
20241;SDS011;10279;46.388;8.116;2022-07-29T11:49:19;3.47;;;2.70;;
20241;SDS011;10279;46.388;8.116;2022-07-29T11:51:58;3.17;;;2.83;;
20241;SDS011;10279;46.388;8.116;2022-07-29T11:54:34;2.38;;;2.17;;
20241;SDS011;10279;46.388;8.116;2022-07-29T11:57:21;2.75;;;2.50;;
20241;SDS011;10279;46.388;8.116;2022-07-29T12:00:05;2.95;;;2.60;;
20241;SDS011;10279;46.388;8.116;2022-07-29T12:02:38;4.25;;;2.53;;
20241;SDS011;10279;46.388;8.116;2022-07-29T12:05:09;3.30;;;2.50;;
20241;SDS011;10279;46.388;8.116;2022-07-29T12:07:39;3.00;;;2.70;;
20241;SDS011;10279;46.388;8.116;2022-07-29T12:10:12;3.35;;;2.45;;
20241;SDS011;10279;46.388;8.116;2022-07-29T12:12:50;2.55;;;2.35;;
20241;SDS011;10279;46.388;8.116;2022-07-29T12:15:19;3.00;;;2.70;;
20241;SDS011;10279;46.388;8.116;2022-07-29T12:17:47;3.42;;;2.70;;
20241;SDS011;10279;46.388;8.116;2022-07-29T12:20:21;2.83;;;2.53;;
20241;SDS011;10279;46.388;8.116;2022-07-29T12:22:57;2.20;;;2.00;;
20241;SDS011;10279;46.388;8.116;2022-07-29T12:25:32;2.65;;;2.25;;
20241;SDS011;10279;46.388;8.116;2022-07-29T12:28:01;2.83;;;2.17;;
20241;SDS011;10279;46.388;8.116;2022-07-29T12:30:39;3.63;;;2.63;;
20241;SDS011;10279;46.388;8.116;2022-07-29T12:33:23;3.22;;;2.47;;
20241;SDS011;10279;46.388;8.116;2022-07-29T12:35:57;15.60;;;3.20;;
20241;SDS011;10279;46.388;8.116;2022-07-29T12:38:42;4.57;;;2.20;;
20241;SDS011;10279;46.388;8.116;2022-07-29T12:41:09;3.08;;;2.78;;
20241;SDS011;10279;46.388;8.116;2022-07-29T12:43:45;3.05;;;2.33;;
20241;SDS011;10279;46.388;8.116;2022-07-29T12:46:21;4.57;;;2.22;;
20241;SDS011;10279;46.388;8.116;2022-07-29T12:48:51;2.70;;;2.50;;
20241;SDS011;10279;46.388;8.116;2022-07-29T12:51:39;2.92;;;2.60;;
20241;SDS011;10279;46.388;8.116;2022-07-29T12:54:08;2.65;;;2.45;;
20241;SDS011;10279;46.388;8.116;2022-07-29T12:56:40;3.60;;;2.42;;
20241;SDS011;10279;46.388;8.116;2022-07-29T13:01:43;2.22;;;2.05;;
20241;SDS011;10279;46.388;8.116;2022-07-29T13:04:10;2.50;;;2.30;;
20241;SDS011;10279;46.388;8.116;2022-07-29T13:06:49;2.80;;;2.30;;
20241;SDS011;10279;46.388;8.116;2022-07-29T13:09:39;4.45;;;2.28;;
20241;SDS011;10279;46.388;8.116;2022-07-29T13:12:08;4.15;;;2.50;;
20241;SDS011;10279;46.388;8.116;2022-07-29T13:14:47;2.67;;;1.90;;
20241;SDS011;10279;46.388;8.116;2022-07-29T13:17:17;4.80;;;2.03;;
20241;SDS011;10279;46.388;8.116;2022-07-29T13:20:05;3.15;;;2.40;;
20241;SDS011;10279;46.388;8.116;2022-07-29T13:22:38;2.25;;;2.10;;
20241;SDS011;10279;46.388;8.116;2022-07-29T13:25:06;1.90;;;1.80;;
20241;SDS011;10279;46.388;8.116;2022-07-29T13:27:35;2.38;;;2.10;;
20241;SDS011;10279;46.388;8.116;2022-07-29T13:30:05;2.10;;;1.92;;
20241;SDS011;10279;46.388;8.116;2022-07-29T13:32:33;2.42;;;1.80;;
20241;SDS011;10279;46.388;8.116;2022-07-29T13:35:03;2.95;;;1.70;;
20241;SDS011;10279;46.388;8.116;2022-07-29T13:37:32;2.40;;;2.20;;
20241;SDS011;10279;46.388;8.116;2022-07-29T13:40:05;3.67;;;2.03;;
20241;SDS011;10279;46.388;8.116;2022-07-29T13:42:33;3.30;;;2.13;;
20241;SDS011;10279;46.388;8.116;2022-07-29T13:45:00;2.20;;;2.05;;
20241;SDS011;10279;46.388;8.116;2022-07-29T13:47:28;2.47;;;2.22;;
20241;SDS011;10279;46.388;8.116;2022-07-29T13:49:59;3.28;;;2.10;;
20241;SDS011;10279;46.388;8.116;2022-07-29T13:52:27;2.45;;;2.20;;
20241;SDS011;10279;46.388;8.116;2022-07-29T13:54:54;2.50;;;2.30;;
20241;SDS011;10279;46.388;8.116;2022-07-29T13:57:24;3.72;;;2.35;;
20241;SDS011;10279;46.388;8.116;2022-07-29T13:59:52;3.22;;;2.95;;
20241;SDS011;10279;46.388;8.116;2022-07-29T14:02:20;4.18;;;2.65;;
20241;SDS011;10279;46.388;8.116;2022-07-29T14:04:51;3.47;;;2.42;;
20241;SDS011;10279;46.388;8.116;2022-07-29T14:07:19;3.10;;;2.80;;
20241;SDS011;10279;46.388;8.116;2022-07-29T14:09:46;5.85;;;2.50;;
20241;SDS011;10279;46.388;8.116;2022-07-29T14:12:13;3.28;;;2.97;;
20241;SDS011;10279;46.388;8.116;2022-07-29T14:14:41;4.00;;;2.50;;
20241;SDS011;10279;46.388;8.116;2022-07-29T14:17:08;4.57;;;2.72;;
20241;SDS011;10279;46.388;8.116;2022-07-29T14:19:36;7.32;;;3.47;;
20241;SDS011;10279;46.388;8.116;2022-07-29T14:22:04;4.35;;;3.03;;
20241;SDS011;10279;46.388;8.116;2022-07-29T14:24:33;2.83;;;2.47;;
20241;SDS011;10279;46.388;8.116;2022-07-29T14:27:02;4.40;;;3.30;;
20241;SDS011;10279;46.388;8.116;2022-07-29T14:29:30;5.57;;;2.88;;
20241;SDS011;10279;46.388;8.116;2022-07-29T14:32:06;5.80;;;3.20;;
20241;SDS011;10279;46.388;8.116;2022-07-29T14:34:34;3.95;;;2.80;;
20241;SDS011;10279;46.388;8.116;2022-07-29T14:37:02;3.78;;;2.95;;
20241;SDS011;10279;46.388;8.116;2022-07-29T14:39:32;3.30;;;2.67;;
20241;SDS011;10279;46.388;8.116;2022-07-29T14:42:04;3.58;;;2.67;;
20241;SDS011;10279;46.388;8.116;2022-07-29T14:44:32;2.97;;;2.75;;
20241;SDS011;10279;46.388;8.116;2022-07-29T14:46:59;4.88;;;3.08;;
20241;SDS011;10279;46.388;8.116;2022-07-29T14:49:33;3.35;;;2.70;;
20241;SDS011;10279;46.388;8.116;2022-07-29T14:52:00;2.85;;;2.60;;
20241;SDS011;10279;46.388;8.116;2022-07-29T14:54:28;3.78;;;3.13;;
20241;SDS011;10279;46.388;8.116;2022-07-29T14:56:55;3.70;;;2.78;;
20241;SDS011;10279;46.388;8.116;2022-07-29T14:59:24;3.05;;;2.72;;
20241;SDS011;10279;46.388;8.116;2022-07-29T15:01:51;4.22;;;3.08;;
20241;SDS011;10279;46.388;8.116;2022-07-29T15:04:19;3.55;;;2.80;;
20241;SDS011;10279;46.388;8.116;2022-07-29T15:06:47;3.88;;;2.80;;
20241;SDS011;10279;46.388;8.116;2022-07-29T15:09:14;4.05;;;2.70;;
20241;SDS011;10279;46.388;8.116;2022-07-29T15:11:42;3.97;;;2.47;;
20241;SDS011;10279;46.388;8.116;2022-07-29T15:14:09;3.30;;;2.38;;
20241;SDS011;10279;46.388;8.116;2022-07-29T15:16:37;2.30;;;2.13;;
20241;SDS011;10279;46.388;8.116;2022-07-29T15:19:09;3.47;;;2.67;;
20241;SDS011;10279;46.388;8.116;2022-07-29T15:21:37;3.85;;;2.70;;
20241;SDS011;10279;46.388;8.116;2022-07-29T15:24:14;3.13;;;2.67;;
20241;SDS011;10279;46.388;8.116;2022-07-29T15:26:42;3.38;;;2.35;;
20241;SDS011;10279;46.388;8.116;2022-07-29T15:29:10;2.70;;;2.50;;
20241;SDS011;10279;46.388;8.116;2022-07-29T15:31:37;3.35;;;2.72;;
20241;SDS011;10279;46.388;8.116;2022-07-29T15:34:06;2.58;;;2.35;;
20241;SDS011;10279;46.388;8.116;2022-07-29T15:36:34;3.65;;;2.45;;
20241;SDS011;10279;46.388;8.116;2022-07-29T15:39:18;6.93;;;2.78;;
20241;SDS011;10279;46.388;8.116;2022-07-29T15:41:46;4.18;;;2.65;;
20241;SDS011;10279;46.388;8.116;2022-07-29T15:44:13;2.75;;;2.40;;
20241;SDS011;10279;46.388;8.116;2022-07-29T15:46:41;2.90;;;2.60;;
20241;SDS011;10279;46.388;8.116;2022-07-29T15:49:31;3.75;;;2.60;;
20241;SDS011;10279;46.388;8.116;2022-07-29T15:52:14;3.03;;;2.72;;
20241;SDS011;10279;46.388;8.116;2022-07-29T15:54:43;2.72;;;2.47;;
20241;SDS011;10279;46.388;8.116;2022-07-29T15:57:11;2.67;;;2.47;;
20241;SDS011;10279;46.388;8.116;2022-07-29T15:59:38;3.95;;;2.25;;
20241;SDS011;10279;46.388;8.116;2022-07-29T16:02:06;3.30;;;2.42;;
20241;SDS011;10279;46.388;8.116;2022-07-29T16:04:33;4.03;;;2.80;;